Time;durP1;ratioP1;P1;durP2;ratioP2;P2;SDS_P1;SDS_P2;PMS_P1;PMS_P2;Temp;Humidity;BMP_temperature;BMP_pressure;BME280_temperature;BME280_humidity;BME280_pressure;Samples;Min_cycle;Max_cycle;Signal;HPM_P1;HPM_P2
2020/12/13 00:01:48;;;;;;;1.60;1.20;;;8.20;98.20;;;;;;5053114;28;20493;-76
2020/12/13 00:04:15;;;;;;;1.63;1.20;;;8.20;98.20;;;;;;5048244;28;20459;-76
2020/12/13 00:06:41;;;;;;;1.60;1.20;;;8.20;98.20;;;;;;5051876;28;20474;-77
2020/12/13 00:09:08;;;;;;;1.60;1.20;;;8.20;98.20;;;;;;5053109;28;20486;-78
2020/12/13 00:11:35;;;;;;;1.60;1.10;;;8.20;98.20;;;;;;5048345;28;20462;-78
2020/12/13 00:14:03;;;;;;;1.60;1.20;;;8.20;98.20;;;;;;5050736;28;20548;-77
2020/12/13 00:16:30;;;;;;;1.63;1.37;;;8.20;98.20;;;;;;5052773;28;20466;-76
2020/12/13 00:18:57;;;;;;;1.60;1.20;;;8.20;98.20;;;;;;5051326;28;20805;-77
2020/12/13 00:21:26;;;;;;;1.60;1.20;;;8.20;98.20;;;;;;5061232;28;20461;-78
2020/12/13 00:23:54;;;;;;;1.70;1.40;;;8.20;98.20;;;;;;5060147;28;20465;-76
2020/12/13 00:26:58;;;;;;;1.60;1.20;;;8.20;98.20;;;;;;5065804;28;20483;-76
2020/12/13 00:29:24;;;;;;;1.60;1.20;;;8.20;98.20;;;;;;5055794;28;20525;-77
2020/12/13 00:31:52;;;;;;;1.60;1.20;;;8.20;98.20;;;;;;5056222;28;20541;-76
2020/12/13 00:34:19;;;;;;;1.60;1.20;;;8.30;98.20;;;;;;5066176;28;20475;-78
2020/12/13 00:36:49;;;;;;;1.63;1.23;;;8.20;98.20;;;;;;5066519;28;20481;-77
2020/12/13 00:39:15;;;;;;;1.60;1.20;;;8.30;98.20;;;;;;5058698;28;20921;-78
2020/12/13 00:41:42;;;;;;;1.60;1.20;;;8.30;98.20;;;;;;5066883;28;20918;-77
2020/12/13 00:44:08;;;;;;;1.60;1.20;;;8.30;98.20;;;;;;5067094;28;20486;-77
2020/12/13 00:46:39;;;;;;;1.60;1.20;;;8.30;98.20;;;;;;5066914;28;20447;-78
2020/12/13 00:49:06;;;;;;;1.63;1.20;;;8.30;98.20;;;;;;5058481;28;21018;-78
2020/12/13 00:51:33;;;;;;;1.70;1.43;;;8.30;98.20;;;;;;5067872;28;20495;-76
2020/12/13 00:53:59;;;;;;;1.60;1.20;;;8.30;98.20;;;;;;5075854;28;20473;-77
2020/12/13 00:56:26;;;;;;;1.60;1.20;;;8.30;98.20;;;;;;5070962;28;20560;-77
2020/12/13 00:58:52;;;;;;;1.60;1.30;;;8.30;98.20;;;;;;5062399;28;20489;-77
2020/12/13 01:01:22;;;;;;;1.60;1.20;;;8.20;98.20;;;;;;5066158;28;20482;-76
2020/12/13 01:03:48;;;;;;;1.60;1.20;;;8.30;98.20;;;;;;5063490;28;20451;-77
2020/12/13 01:06:22;;;;;;;1.67;1.20;;;8.20;98.20;;;;;;5057493;28;20879;-78
2020/12/13 01:08:49;;;;;;;1.60;1.20;;;8.30;98.20;;;;;;5069578;28;20482;-77
2020/12/13 01:11:24;;;;;;;1.70;1.30;;;8.30;98.20;;;;;;5064651;28;20494;-76
2020/12/13 01:13:57;;;;;;;1.60;1.20;;;8.30;98.20;;;;;;5055534;28;20486;-76
2020/12/13 01:16:25;;;;;;;1.60;1.20;;;8.30;98.20;;;;;;5061842;28;20768;-76
2020/12/13 01:18:51;;;;;;;1.67;1.30;;;8.30;98.20;;;;;;5065561;28;20854;-76
2020/12/13 01:21:19;;;;;;;1.67;1.30;;;8.30;98.20;;;;;;5062959;28;20464;-77
2020/12/13 01:23:47;;;;;;;1.63;1.20;;;8.30;98.20;;;;;;5073692;28;20547;-76
2020/12/13 01:26:15;;;;;;;1.67;1.33;;;8.30;98.20;;;;;;5061968;28;20517;-76
2020/12/13 01:28:41;;;;;;;1.60;1.20;;;8.30;98.20;;;;;;5068574;28;20474;-77
2020/12/13 01:31:11;;;;;;;1.60;1.20;;;8.30;98.20;;;;;;5070325;28;20515;-75
2020/12/13 01:33:38;;;;;;;1.60;1.30;;;8.30;98.20;;;;;;5071327;28;20479;-76
2020/12/13 01:36:04;;;;;;;1.60;1.30;;;8.30;98.20;;;;;;5065976;28;20454;-76
2020/12/13 01:38:31;;;;;;;1.63;1.20;;;8.30;98.20;;;;;;5061829;28;20502;-76
2020/12/13 01:40:59;;;;;;;1.60;1.10;;;8.20;98.20;;;;;;5063769;28;20461;-76
2020/12/13 01:43:26;;;;;;;1.67;1.20;;;8.20;98.20;;;;;;5058170;28;20459;-76
2020/12/13 01:45:55;;;;;;;1.60;1.20;;;8.20;98.20;;;;;;5066057;28;20873;-76
2020/12/13 01:48:22;;;;;;;1.60;1.20;;;8.20;98.20;;;;;;5064299;28;20470;-76
2020/12/13 01:50:57;;;;;;;1.60;1.20;;;8.20;98.20;;;;;;5073096;28;20535;-76
2020/12/13 01:53:27;;;;;;;1.60;1.30;;;8.20;98.20;;;;;;5071572;28;20565;-76
2020/12/13 01:56:01;;;;;;;1.70;1.30;;;8.20;98.20;;;;;;5069197;28;20455;-76
2020/12/13 01:58:32;;;;;;;1.70;1.30;;;8.20;98.20;;;;;;5056884;28;20502;-76
2020/12/13 02:01:00;;;;;;;1.63;1.20;;;8.20;98.20;;;;;;5060330;28;20482;-76
2020/12/13 02:03:35;;;;;;;1.70;1.20;;;8.20;98.20;;;;;;5059739;28;20454;-76
2020/12/13 02:06:07;;;;;;;1.67;1.30;;;8.20;98.20;;;;;;5058361;28;20458;-76
2020/12/13 02:08:38;;;;;;;1.70;1.30;;;8.20;98.20;;;;;;5057143;28;20483;-76
2020/12/13 02:11:07;;;;;;;1.60;1.20;;;8.20;98.20;;;;;;5064445;28;20490;-76
2020/12/13 02:13:33;;;;;;;1.60;1.20;;;8.20;98.20;;;;;;5064818;28;20731;-76
2020/12/13 02:16:00;;;;;;;1.60;1.20;;;8.20;98.20;;;;;;5055255;28;20531;-77
2020/12/13 02:18:28;;;;;;;1.70;1.30;;;8.20;98.20;;;;;;5056710;28;20502;-76
2020/12/13 02:20:55;;;;;;;1.60;1.20;;;8.20;98.20;;;;;;5062143;28;20462;-76
2020/12/13 02:23:23;;;;;;;1.60;1.20;;;8.20;98.20;;;;;;5075083;28;20513;-76
2020/12/13 02:25:50;;;;;;;1.60;1.20;;;8.20;98.20;;;;;;5063497;28;20455;-76
2020/12/13 02:28:17;;;;;;;1.60;1.30;;;8.30;98.20;;;;;;5062909;28;20489;-76
2020/12/13 02:30:46;;;;;;;1.60;1.20;;;8.30;98.20;;;;;;5061282;28;20990;-76
2020/12/13 02:33:13;;;;;;;1.60;1.30;;;8.30;98.20;;;;;;5056784;28;20526;-76
2020/12/13 02:35:39;;;;;;;1.60;1.20;;;8.30;98.20;;;;;;5062522;28;20490;-77
2020/12/13 02:38:06;;;;;;;1.60;1.20;;;8.30;98.20;;;;;;5066377;28;20487;-76
2020/12/13 02:40:37;;;;;;;1.67;1.30;;;8.30;98.20;;;;;;5067147;28;20512;-76
2020/12/13 02:43:04;;;;;;;1.60;1.20;;;8.30;98.20;;;;;;5075527;28;20471;-75
2020/12/13 02:45:32;;;;;;;1.60;1.10;;;8.30;98.20;;;;;;5062208;28;20720;-76
2020/12/13 02:47:59;;;;;;;1.60;1.20;;;8.30;98.20;;;;;;5065602;28;20513;-77
2020/12/13 02:50:25;;;;;;;1.60;1.20;;;8.30;98.20;;;;;;5061005;28;20483;-76
2020/12/13 02:52:53;;;;;;;1.60;1.20;;;8.30;98.20;;;;;;5065472;28;20478;-76
2020/12/13 02:55:20;;;;;;;1.60;1.20;;;8.30;98.20;;;;;;5065817;28;20466;-77
2020/12/13 02:57:47;;;;;;;1.60;1.20;;;8.30;98.20;;;;;;5055034;28;20777;-76
2020/12/13 03:00:14;;;;;;;1.70;1.33;;;8.30;98.20;;;;;;5065077;28;20450;-76
2020/12/13 03:02:42;;;;;;;1.63;1.20;;;8.30;98.20;;;;;;5079307;28;20449;-76
2020/12/13 03:05:11;;;;;;;1.60;1.20;;;8.30;98.20;;;;;;5075368;28;20926;-76
2020/12/13 03:07:39;;;;;;;1.63;1.23;;;8.30;98.20;;;;;;5062449;28;20482;-76
2020/12/13 03:10:08;;;;;;;1.70;1.40;;;8.30;98.20;;;;;;5065460;28;20454;-76
2020/12/13 03:12:35;;;;;;;1.67;1.30;;;8.30;98.20;;;;;;5061735;28;20482;-76
2020/12/13 03:15:02;;;;;;;1.77;1.40;;;8.30;98.20;;;;;;5068911;28;20519;-76
2020/12/13 03:17:29;;;;;;;1.60;1.23;;;8.30;98.20;;;;;;5067391;28;20836;-76
2020/12/13 03:19:55;;;;;;;1.60;1.20;;;8.30;98.20;;;;;;5059388;28;20466;-76
2020/12/13 03:22:22;;;;;;;1.60;1.20;;;8.30;98.20;;;;;;5067653;28;20457;-76
2020/12/13 03:24:48;;;;;;;1.63;1.20;;;8.30;98.20;;;;;;5068022;28;20480;-77
2020/12/13 03:27:15;;;;;;;1.70;1.30;;;8.30;98.20;;;;;;5061271;28;20501;-77
2020/12/13 03:29:45;;;;;;;1.60;1.20;;;8.30;98.20;;;;;;5054525;28;20513;-76
2020/12/13 03:32:12;;;;;;;1.67;1.20;;;8.30;98.20;;;;;;5066268;28;20460;-76
2020/12/13 03:34:38;;;;;;;1.67;1.30;;;8.30;98.20;;;;;;5063827;28;20455;-76
2020/12/13 03:37:08;;;;;;;1.70;1.30;;;8.30;98.20;;;;;;5066878;28;20502;-77
2020/12/13 03:39:34;;;;;;;1.70;1.30;;;8.30;98.20;;;;;;5062168;28;20484;-76
2020/12/13 03:42:01;;;;;;;1.67;1.30;;;8.30;98.20;;;;;;5059060;28;21156;-77
2020/12/13 03:44:27;;;;;;;1.67;1.27;;;8.30;98.20;;;;;;5058726;28;20491;-77
2020/12/13 03:46:54;;;;;;;1.63;1.20;;;8.30;98.20;;;;;;5072771;28;20483;-77
2020/12/13 03:49:21;;;;;;;1.63;1.40;;;8.30;98.20;;;;;;5075953;28;20469;-76
2020/12/13 03:51:50;;;;;;;1.60;1.20;;;8.30;98.20;;;;;;5069761;28;20464;-76
2020/12/13 03:54:17;;;;;;;1.70;1.43;;;8.30;98.20;;;;;;5058992;28;20488;-77
2020/12/13 03:56:43;;;;;;;1.70;1.30;;;8.30;98.20;;;;;;5064617;28;20458;-76
2020/12/13 03:59:09;;;;;;;1.60;1.20;;;8.30;98.20;;;;;;5066272;28;20481;-76
2020/12/13 04:01:36;;;;;;;1.63;1.20;;;8.30;98.20;;;;;;5070390;28;20476;-76
2020/12/13 04:04:02;;;;;;;1.60;1.20;;;8.30;98.20;;;;;;5063342;28;20463;-76
2020/12/13 04:06:30;;;;;;;1.60;1.20;;;8.30;98.20;;;;;;5061776;28;20467;-76
2020/12/13 04:08:56;;;;;;;1.60;1.37;;;8.30;98.20;;;;;;5057804;28;20592;-76
2020/12/13 04:11:23;;;;;;;1.60;1.20;;;8.30;98.20;;;;;;5065058;28;20523;-76
2020/12/13 04:13:49;;;;;;;2.27;1.70;;;8.30;98.20;;;;;;5063231;28;20517;-76
2020/12/13 04:16:15;;;;;;;1.63;1.20;;;8.30;98.20;;;;;;5066029;28;20520;-76
2020/12/13 04:18:42;;;;;;;1.63;1.20;;;8.30;98.20;;;;;;5059682;28;20501;-76
2020/12/13 04:21:08;;;;;;;1.70;1.40;;;8.30;98.20;;;;;;5072065;28;22035;-76
2020/12/13 04:23:36;;;;;;;1.60;1.10;;;8.30;98.20;;;;;;5074905;28;20454;-76
2020/12/13 04:26:08;;;;;;;1.60;1.10;;;8.30;98.20;;;;;;5064787;28;20509;-76
2020/12/13 04:28:35;;;;;;;1.60;1.20;;;8.30;98.20;;;;;;5060436;28;20508;-76
2020/12/13 04:31:01;;;;;;;1.67;1.30;;;8.30;98.20;;;;;;5063858;28;20467;-76
2020/12/13 04:33:28;;;;;;;1.70;1.30;;;8.30;98.20;;;;;;5060746;28;20490;-76
2020/12/13 04:35:56;;;;;;;1.60;1.10;;;8.20;98.20;;;;;;5066150;28;20463;-76
2020/12/13 04:38:25;;;;;;;1.70;1.40;;;8.20;98.20;;;;;;5064772;28;20580;-75
2020/12/13 04:40:52;;;;;;;1.70;1.30;;;8.20;98.20;;;;;;5065765;28;20947;-76
2020/12/13 04:43:19;;;;;;;1.63;1.20;;;8.20;98.20;;;;;;5072579;28;20483;-76
2020/12/13 04:45:46;;;;;;;1.60;1.20;;;8.20;98.20;;;;;;5065215;28;20497;-76
2020/12/13 04:48:13;;;;;;;1.63;1.20;;;8.20;98.20;;;;;;5063888;28;20482;-76
2020/12/13 04:50:48;;;;;;;1.60;1.20;;;8.20;98.20;;;;;;5063438;28;20462;-76
2020/12/13 04:53:17;;;;;;;1.63;1.27;;;8.20;98.20;;;;;;5072033;28;20552;-76
2020/12/13 04:55:53;;;;;;;1.60;1.20;;;8.20;98.20;;;;;;5064159;28;20499;-76
2020/12/13 04:58:22;;;;;;;1.60;1.20;;;8.20;98.20;;;;;;5077831;28;20508;-76
2020/12/13 05:00:56;;;;;;;1.70;1.40;;;8.20;98.20;;;;;;5068277;28;20456;-76
2020/12/13 05:03:23;;;;;;;1.60;1.20;;;8.20;98.20;;;;;;5062895;28;20794;-76
2020/12/13 05:08:58;;;;;;;1.70;1.30;;;8.20;98.20;;;;;;5070139;28;20900;-76
2020/12/13 05:11:26;;;;;;;1.63;1.23;;;8.20;98.20;;;;;;5070989;28;20462;-76
2020/12/13 05:13:53;;;;;;;1.67;1.30;;;8.20;98.20;;;;;;5059139;28;20483;-76
2020/12/13 05:16:22;;;;;;;1.60;1.30;;;8.20;98.20;;;;;;5067420;28;20461;-76
2020/12/13 05:18:49;;;;;;;1.60;1.20;;;8.20;98.20;;;;;;5063834;28;20481;-76
2020/12/13 05:21:21;;;;;;;1.60;1.30;;;8.20;98.20;;;;;;5069543;28;20471;-76
2020/12/13 05:23:49;;;;;;;1.60;1.20;;;8.20;98.20;;;;;;5068611;28;20464;-76
2020/12/13 05:26:16;;;;;;;1.60;1.30;;;8.20;98.20;;;;;;5062746;28;20454;-76
2020/12/13 05:28:52;;;;;;;1.60;1.20;;;8.20;98.20;;;;;;5062355;28;20543;-76
2020/12/13 05:31:25;;;;;;;1.70;1.30;;;8.20;98.20;;;;;;5060351;28;20485;-76
2020/12/13 05:33:54;;;;;;;1.67;1.30;;;8.20;98.20;;;;;;5064219;28;20478;-76
2020/12/13 05:36:21;;;;;;;1.60;1.20;;;8.20;98.20;;;;;;5060342;28;20829;-76
2020/12/13 05:38:47;;;;;;;1.60;1.20;;;8.20;98.20;;;;;;5056694;28;20548;-77
2020/12/13 05:41:16;;;;;;;1.60;1.20;;;8.20;98.20;;;;;;5060135;28;20920;-77
2020/12/13 05:43:47;;;;;;;1.60;1.20;;;8.20;98.20;;;;;;5063634;28;20462;-77
2020/12/13 05:46:37;;;;;;;1.63;1.30;;;8.20;98.20;;;;;;5067932;28;20496;-77
2020/12/13 05:51:49;;;;;;;1.60;1.20;;;8.20;98.20;;;;;;5065415;28;20462;-77
2020/12/13 05:54:21;;;;;;;1.60;1.20;;;8.10;98.20;;;;;;5081320;28;20524;-77
2020/12/13 05:56:57;;;;;;;1.60;1.10;;;8.10;98.20;;;;;;5057324;28;20494;-77
2020/12/13 05:59:24;;;;;;;1.60;1.20;;;8.10;98.20;;;;;;5065809;28;20501;-76
2020/12/13 06:01:53;;;;;;;1.60;1.20;;;8.10;98.20;;;;;;5065124;28;20461;-76
2020/12/13 06:04:26;;;;;;;1.60;1.20;;;8.10;98.20;;;;;;5055139;28;20454;-76
2020/12/13 06:06:56;;;;;;;1.60;1.10;;;8.10;98.20;;;;;;5066372;28;20463;-76
2020/12/13 06:09:32;;;;;;;1.60;1.20;;;8.10;98.20;;;;;;5059727;28;20528;-76
2020/12/13 06:12:03;;;;;;;1.60;1.20;;;8.10;98.20;;;;;;5063414;28;20544;-76
2020/12/13 06:14:30;;;;;;;1.60;1.20;;;8.10;98.20;;;;;;5072981;28;20586;-76
2020/12/13 06:16:58;;;;;;;1.70;1.30;;;8.10;98.20;;;;;;5061604;28;20466;-76
2020/12/13 06:19:28;;;;;;;1.63;1.20;;;8.10;98.20;;;;;;5061441;28;20494;-76
2020/12/13 06:21:56;;;;;;;1.67;1.30;;;8.00;98.20;;;;;;5068017;28;20490;-76
2020/12/13 06:24:27;;;;;;;1.67;1.30;;;8.00;98.20;;;;;;5066676;28;20491;-76
2020/12/13 06:26:56;;;;;;;1.70;1.40;;;8.00;98.20;;;;;;5062180;28;20526;-76
2020/12/13 06:29:23;;;;;;;1.63;1.30;;;8.00;98.20;;;;;;5055633;28;20507;-77
2020/12/13 06:31:54;;;;;;;1.63;1.30;;;8.00;98.20;;;;;;5056983;28;20475;-76
2020/12/13 06:34:20;;;;;;;1.60;1.30;;;8.00;98.20;;;;;;5057839;28;20506;-76
2020/12/13 06:36:48;;;;;;;1.60;1.30;;;8.00;98.20;;;;;;5060475;28;20458;-76
2020/12/13 06:39:16;;;;;;;1.60;1.27;;;8.00;98.20;;;;;;5054152;28;20540;-77
2020/12/13 06:41:47;;;;;;;1.60;1.20;;;8.00;98.20;;;;;;5059508;28;20470;-76
2020/12/13 06:44:14;;;;;;;1.63;1.20;;;8.00;98.20;;;;;;5062252;28;20720;-76
2020/12/13 06:46:45;;;;;;;1.63;1.23;;;7.90;98.20;;;;;;5060237;28;20874;-76
2020/12/13 06:49:13;;;;;;;1.60;1.20;;;7.90;98.20;;;;;;5063292;28;20899;-76
2020/12/13 06:51:41;;;;;;;1.60;1.10;;;7.90;98.20;;;;;;5059179;28;20461;-76
2020/12/13 06:54:10;;;;;;;1.60;1.20;;;7.90;98.20;;;;;;5078427;28;20517;-76
2020/12/13 06:56:37;;;;;;;1.60;1.20;;;7.90;98.20;;;;;;5069255;28;20489;-76
2020/12/13 06:59:06;;;;;;;1.63;1.20;;;7.90;98.20;;;;;;5065561;28;20536;-76
2020/12/13 07:01:36;;;;;;;1.63;1.20;;;7.90;98.20;;;;;;5062329;28;20494;-76
2020/12/13 07:04:31;;;;;;;1.60;1.20;;;7.90;98.20;;;;;;5068393;28;20482;-77
2020/12/13 07:07:01;;;;;;;1.60;1.23;;;7.90;98.20;;;;;;5069514;28;20472;-77
2020/12/13 07:09:31;;;;;;;1.60;1.20;;;7.90;98.20;;;;;;5072191;28;20477;-76
2020/12/13 07:12:02;;;;;;;1.60;1.30;;;7.90;98.20;;;;;;5057751;28;20459;-77
2020/12/13 07:14:30;;;;;;;1.70;1.30;;;7.80;98.20;;;;;;5052606;28;20487;-77
2020/12/13 07:17:02;;;;;;;1.70;1.37;;;7.80;98.20;;;;;;5061765;28;20591;-77
2020/12/13 07:19:31;;;;;;;1.70;1.40;;;7.80;98.20;;;;;;5058295;28;20511;-76
2020/12/13 07:22:03;;;;;;;1.63;1.30;;;7.80;98.20;;;;;;5062636;28;20492;-77
2020/12/13 07:24:31;;;;;;;1.70;1.30;;;7.80;98.20;;;;;;5073358;28;21068;-76
2020/12/13 07:26:58;;;;;;;1.63;1.30;;;7.80;98.20;;;;;;5061542;28;20465;-77
2020/12/13 07:29:32;;;;;;;1.60;1.20;;;7.70;98.20;;;;;;5060791;28;20479;-76
2020/12/13 07:35:13;;;;;;;1.60;1.20;;;7.70;98.20;;;;;;5055934;28;20482;-76
2020/12/13 07:37:42;;;;;;;1.60;1.20;;;7.70;98.20;;;;;;5057110;28;20579;-76
2020/12/13 07:40:10;;;;;;;1.60;1.27;;;7.70;98.20;;;;;;5067353;28;20522;-76
2020/12/13 07:42:37;;;;;;;1.60;1.20;;;7.70;98.20;;;;;;5053438;28;20506;-75
2020/12/13 07:45:06;;;;;;;1.70;1.40;;;7.60;98.20;;;;;;5060114;28;20470;-76
2020/12/13 07:47:32;;;;;;;1.63;1.20;;;7.60;98.20;;;;;;5059359;28;21101;-76
2020/12/13 07:50:03;;;;;;;1.60;1.23;;;7.60;98.20;;;;;;5060106;28;20486;-75
2020/12/13 07:52:36;;;;;;;1.63;1.20;;;7.60;98.20;;;;;;5068069;28;20484;-76
2020/12/13 07:55:06;;;;;;;2.13;1.93;;;7.60;98.20;;;;;;5068444;28;20453;-76
2020/12/13 07:57:47;;;;;;;1.60;1.30;;;7.60;98.20;;;;;;5052222;28;20482;-76
2020/12/13 08:00:14;;;;;;;1.63;1.30;;;7.60;98.20;;;;;;5058808;28;20506;-75
2020/12/13 08:02:41;;;;;;;1.63;1.30;;;7.60;98.20;;;;;;5056268;28;20467;-76
2020/12/13 08:05:08;;;;;;;1.70;1.30;;;7.60;98.20;;;;;;5063435;28;20485;-75
2020/12/13 08:07:36;;;;;;;1.60;1.30;;;7.60;98.20;;;;;;5059845;28;21125;-76
2020/12/13 08:10:05;;;;;;;1.70;1.30;;;7.60;98.20;;;;;;5057071;28;20493;-76
2020/12/13 08:12:38;;;;;;;1.67;1.20;;;7.60;98.20;;;;;;5059544;28;20459;-76
2020/12/13 08:15:07;;;;;;;1.63;1.30;;;7.60;98.20;;;;;;5051877;28;20462;-76
2020/12/13 08:17:34;;;;;;;1.67;1.30;;;7.60;98.20;;;;;;5060498;28;20486;-76
2020/12/13 08:20:04;;;;;;;1.67;1.30;;;7.60;98.20;;;;;;5056789;28;20459;-76
2020/12/13 08:22:34;;;;;;;1.60;1.20;;;7.60;98.20;;;;;;5062538;28;20493;-77
2020/12/13 08:25:06;;;;;;;1.60;1.27;;;7.70;98.20;;;;;;5055975;28;20454;-77
2020/12/13 08:27:34;;;;;;;1.60;1.30;;;7.70;98.20;;;;;;5054468;28;20510;-76
2020/12/13 08:30:02;;;;;;;1.70;1.30;;;7.70;98.20;;;;;;5062887;28;20460;-77
2020/12/13 08:32:33;;;;;;;1.60;1.20;;;7.70;98.20;;;;;;5061671;28;20460;-76
2020/12/13 08:35:13;;;;;;;1.67;1.20;;;7.70;98.20;;;;;;5053816;28;21007;-77
2020/12/13 08:37:40;;;;;;;1.60;1.20;;;7.70;98.20;;;;;;5062579;28;20747;-76
2020/12/13 08:40:08;;;;;;;1.70;1.30;;;7.70;98.20;;;;;;5058419;28;20459;-76
2020/12/13 08:42:35;;;;;;;1.60;1.20;;;7.70;98.20;;;;;;5065746;28;20752;-77
2020/12/13 08:45:03;;;;;;;1.60;1.20;;;7.70;98.20;;;;;;5054615;28;20477;-76
2020/12/13 08:47:33;;;;;;;1.70;1.37;;;7.70;98.20;;;;;;5053165;28;20498;-76
2020/12/13 08:50:02;;;;;;;1.60;1.30;;;7.70;98.20;;;;;;5077962;28;20487;-76
2020/12/13 08:52:34;;;;;;;1.63;1.30;;;7.70;98.20;;;;;;5070821;28;20449;-76
2020/12/13 08:55:04;;;;;;;1.60;1.20;;;7.70;98.20;;;;;;5060158;28;20486;-76
2020/12/13 08:57:32;;;;;;;1.60;1.20;;;7.80;98.20;;;;;;5062774;28;20509;-76
2020/12/13 09:00:06;;;;;;;1.60;1.20;;;7.80;98.20;;;;;;5059148;28;20492;-76
2020/12/13 09:02:34;;;;;;;1.67;1.37;;;7.80;98.20;;;;;;5063299;28;20501;-76
2020/12/13 09:05:05;;;;;;;1.67;1.30;;;7.80;98.20;;;;;;5075633;28;20454;-76
2020/12/13 09:07:33;;;;;;;1.60;1.20;;;7.90;98.20;;;;;;5060856;28;20550;-77
2020/12/13 09:10:20;;;;;;;1.67;1.20;;;7.90;98.20;;;;;;5063192;28;21183;-77
2020/12/13 09:12:48;;;;;;;1.67;1.33;;;7.90;98.20;;;;;;5065851;28;20463;-77
2020/12/13 09:15:19;;;;;;;1.60;1.30;;;8.00;98.20;;;;;;5069407;28;20498;-77
2020/12/13 09:18:01;;;;;;;1.63;1.20;;;8.00;98.20;;;;;;5057267;28;20920;-76
2020/12/13 09:20:31;;;;;;;1.63;1.20;;;8.00;98.20;;;;;;5060615;28;20466;-77
2020/12/13 09:23:05;;;;;;;1.60;1.30;;;8.00;98.20;;;;;;5062598;28;20864;-77
2020/12/13 09:25:37;;;;;;;1.70;1.30;;;8.00;98.20;;;;;;5058464;28;20466;-77
2020/12/13 09:28:06;;;;;;;1.67;1.23;;;8.10;98.20;;;;;;5061541;28;20536;-76
2020/12/13 09:30:36;;;;;;;1.60;1.20;;;8.10;98.20;;;;;;5064204;28;20493;-76
2020/12/13 09:33:03;;;;;;;1.60;1.20;;;8.10;98.20;;;;;;5062881;28;20559;-77
2020/12/13 09:35:31;;;;;;;1.60;1.20;;;8.10;98.20;;;;;;5062436;28;20459;-77
2020/12/13 09:38:00;;;;;;;1.60;1.20;;;8.20;98.20;;;;;;5062134;28;20490;-76
2020/12/13 09:40:27;;;;;;;1.60;1.20;;;8.20;98.20;;;;;;5067014;28;20462;-77
2020/12/13 09:42:58;;;;;;;1.60;1.30;;;8.20;98.20;;;;;;5063659;28;20471;-77
2020/12/13 09:45:25;;;;;;;1.60;1.20;;;8.30;98.20;;;;;;5062819;28;20477;-76
2020/12/13 09:47:55;;;;;;;1.60;1.20;;;8.30;98.20;;;;;;5069870;28;20921;-76
2020/12/13 09:50:23;;;;;;;1.70;1.30;;;8.30;98.20;;;;;;5069212;28;20486;-77
2020/12/13 09:52:50;;;;;;;1.63;1.20;;;8.30;98.20;;;;;;5068897;28;20575;-77
2020/12/13 09:55:24;;;;;;;1.60;1.20;;;8.30;98.20;;;;;;5061385;28;21296;-76
2020/12/13 09:57:51;;;;;;;1.60;1.20;;;8.30;98.20;;;;;;5063531;28;20544;-76
2020/12/13 10:00:17;;;;;;;1.63;1.30;;;8.40;98.20;;;;;;5073737;28;20459;-77
2020/12/13 10:02:44;;;;;;;1.60;1.10;;;8.40;98.20;;;;;;5068212;28;20473;-77
2020/12/13 10:05:18;;;;;;;1.70;1.40;;;8.40;98.20;;;;;;5071113;28;20481;-76
2020/12/13 10:10:32;;;;;;;1.60;1.20;;;8.50;98.20;;;;;;5070035;28;20461;-77
2020/12/13 10:12:58;;;;;;;1.70;1.20;;;8.50;98.20;;;;;;5061968;28;20454;-77
2020/12/13 10:15:42;;;;;;;1.60;1.10;;;8.50;98.20;;;;;;5060293;28;20458;-76
2020/12/13 10:18:08;;;;;;;1.60;1.20;;;8.50;98.20;;;;;;5057419;28;20495;-76
2020/12/13 10:20:40;;;;;;;1.60;1.20;;;8.60;98.20;;;;;;5053167;28;20461;-76
2020/12/13 10:23:12;;;;;;;1.67;1.30;;;8.60;98.20;;;;;;5052538;28;20893;-75
2020/12/13 10:25:52;;;;;;;1.60;1.20;;;8.70;98.20;;;;;;5063208;28;20497;-75
2020/12/13 10:28:21;;;;;;;1.60;1.13;;;8.70;98.20;;;;;;5056629;28;20735;-76
2020/12/13 10:30:50;;;;;;;1.60;1.20;;;8.70;98.20;;;;;;5062042;28;20850;-75
2020/12/13 10:33:20;;;;;;;1.70;1.40;;;8.80;98.20;;;;;;5066630;28;20485;-76
2020/12/13 10:35:47;;;;;;;1.67;1.20;;;8.80;98.20;;;;;;5064218;28;20458;-75
2020/12/13 10:38:14;;;;;;;1.60;1.20;;;8.80;98.20;;;;;;5054176;28;20497;-76
2020/12/13 10:40:42;;;;;;;1.63;1.20;;;8.80;98.20;;;;;;5055530;28;20770;-76
2020/12/13 10:43:09;;;;;;;1.67;1.20;;;8.80;98.20;;;;;;5060254;28;20885;-75
2020/12/13 10:45:35;;;;;;;1.63;1.20;;;8.80;98.20;;;;;;5058539;28;20463;-76
2020/12/13 10:48:03;;;;;;;1.63;1.20;;;8.80;98.20;;;;;;5064972;28;20500;-77
2020/12/13 10:50:37;;;;;;;1.63;1.20;;;8.90;98.20;;;;;;5061221;28;20518;-76
2020/12/13 10:53:03;;;;;;;1.60;1.20;;;8.90;98.20;;;;;;5049471;28;20459;-76
2020/12/13 10:55:31;;;;;;;1.60;1.20;;;8.90;98.20;;;;;;5053868;28;20458;-76
2020/12/13 10:57:57;;;;;;;1.60;1.20;;;8.90;98.20;;;;;;5063897;28;20566;-76
2020/12/13 11:00:24;;;;;;;1.60;1.10;;;8.90;98.20;;;;;;5058435;28;20498;-76
2020/12/13 11:02:53;;;;;;;1.60;1.10;;;8.90;98.20;;;;;;5061754;28;20469;-77
2020/12/13 11:05:20;;;;;;;1.63;1.20;;;9.00;98.20;;;;;;5067292;28;20493;-76
2020/12/13 11:07:48;;;;;;;1.60;1.10;;;9.00;98.20;;;;;;5058841;28;21026;-76
2020/12/13 11:10:15;;;;;;;1.60;1.10;;;9.00;98.20;;;;;;5059025;28;20446;-76
2020/12/13 11:12:49;;;;;;;1.63;1.10;;;9.00;98.20;;;;;;5060732;28;20463;-76
2020/12/13 11:15:15;;;;;;;1.60;1.20;;;9.00;98.20;;;;;;5066610;28;20617;-76
2020/12/13 11:17:45;;;;;;;1.60;1.10;;;9.00;98.20;;;;;;5062118;28;20518;-76
2020/12/13 11:20:17;;;;;;;1.63;1.17;;;9.00;98.20;;;;;;5054261;28;20485;-76
2020/12/13 11:22:43;;;;;;;1.60;1.10;;;9.00;98.20;;;;;;5060195;28;20463;-76
2020/12/13 11:25:10;;;;;;;1.60;1.20;;;8.90;98.20;;;;;;5062418;28;20522;-76
2020/12/13 11:27:39;;;;;;;1.60;1.17;;;8.90;98.20;;;;;;5054777;28;20983;-76
2020/12/13 11:30:09;;;;;;;1.60;1.13;;;8.90;98.20;;;;;;5060034;28;20529;-76
2020/12/13 11:32:37;;;;;;;1.60;1.20;;;8.90;98.20;;;;;;5058468;28;20458;-76
2020/12/13 11:35:06;;;;;;;1.67;1.20;;;8.90;98.20;;;;;;5060002;28;20722;-76
2020/12/13 11:37:43;;;;;;;1.63;1.20;;;8.90;98.20;;;;;;5061612;28;21017;-76
2020/12/13 11:40:10;;;;;;;1.60;1.20;;;8.90;98.20;;;;;;5059454;28;20488;-76
2020/12/13 11:42:37;;;;;;;1.60;1.20;;;8.90;98.20;;;;;;5048224;28;20474;-76
2020/12/13 11:45:04;;;;;;;1.60;1.20;;;8.90;98.20;;;;;;5056089;28;20845;-76
2020/12/13 11:47:31;;;;;;;1.60;1.20;;;9.00;98.20;;;;;;5053378;28;20548;-76
2020/12/13 11:49:58;;;;;;;1.60;1.20;;;9.10;98.20;;;;;;5048681;28;20522;-76
2020/12/13 11:52:24;;;;;;;1.60;1.10;;;9.10;98.20;;;;;;5056095;28;20845;-76
2020/12/13 11:54:51;;;;;;;1.60;1.20;;;9.20;98.20;;;;;;5050290;28;20860;-76
2020/12/13 11:57:17;;;;;;;1.63;1.20;;;9.20;98.20;;;;;;5055530;28;20497;-75
2020/12/13 11:59:44;;;;;;;1.63;1.20;;;9.30;98.20;;;;;;5051069;28;20571;-76
2020/12/13 12:02:11;;;;;;;1.60;1.17;;;9.30;98.20;;;;;;5055000;28;20872;-76
2020/12/13 12:04:38;;;;;;;1.60;1.10;;;9.40;98.20;;;;;;5079879;28;20488;-76
2020/12/13 12:07:05;;;;;;;1.60;1.20;;;9.40;98.20;;;;;;5049573;28;20466;-76
2020/12/13 12:09:31;;;;;;;1.60;1.20;;;9.40;98.20;;;;;;5050114;28;20487;-76
2020/12/13 12:11:57;;;;;;;1.67;1.13;;;9.50;98.20;;;;;;5058734;28;21069;-76
2020/12/13 12:14:24;;;;;;;1.60;1.20;;;9.50;98.20;;;;;;5059345;28;20513;-76
2020/12/13 12:16:50;;;;;;;1.60;1.30;;;9.60;98.20;;;;;;5060702;28;20484;-76
2020/12/13 12:19:17;;;;;;;1.60;1.10;;;9.70;98.20;;;;;;5057452;28;20514;-76
2020/12/13 12:21:46;;;;;;;1.60;1.10;;;9.70;98.20;;;;;;5057999;28;20978;-75
2020/12/13 12:24:15;;;;;;;1.63;1.20;;;9.60;98.20;;;;;;5058850;28;20450;-76
2020/12/13 12:26:42;;;;;;;1.60;1.10;;;9.70;98.20;;;;;;5057732;28;20485;-76
2020/12/13 12:29:12;;;;;;;1.60;1.20;;;9.70;98.20;;;;;;5059937;28;20518;-76
2020/12/13 12:31:39;;;;;;;1.60;1.10;;;9.70;98.20;;;;;;5067287;28;21017;-76
2020/12/13 12:34:05;;;;;;;1.63;1.17;;;9.80;98.20;;;;;;5077424;28;20573;-76
2020/12/13 12:36:31;;;;;;;1.60;1.20;;;9.70;98.20;;;;;;5070755;28;20763;-76
2020/12/13 12:38:59;;;;;;;1.60;1.10;;;9.70;98.20;;;;;;5061697;28;20521;-76
2020/12/13 12:41:25;;;;;;;1.63;1.20;;;9.70;98.20;;;;;;5060206;28;20494;-76
2020/12/13 12:43:52;;;;;;;1.60;1.10;;;9.60;98.20;;;;;;5051940;28;20483;-76
2020/12/13 12:46:19;;;;;;;1.60;1.20;;;9.60;98.20;;;;;;5057324;28;20835;-75
2020/12/13 12:48:48;;;;;;;1.70;1.30;;;9.60;98.20;;;;;;5057495;28;20486;-75
2020/12/13 12:51:15;;;;;;;1.60;1.20;;;9.60;98.20;;;;;;5061508;28;20458;-76
2020/12/13 12:53:42;;;;;;;1.60;1.20;;;9.60;98.20;;;;;;5065220;28;20549;-76
2020/12/13 12:56:10;;;;;;;1.60;1.20;;;9.50;98.20;;;;;;5058028;28;21399;-76
2020/12/13 12:58:42;;;;;;;1.60;1.10;;;9.50;98.20;;;;;;5054958;28;20474;-76
2020/12/13 13:01:11;;;;;;;1.60;1.20;;;9.50;98.20;;;;;;5054159;28;20478;-75
2020/12/13 13:03:40;;;;;;;1.60;1.10;;;9.50;98.20;;;;;;5068307;28;20466;-76
2020/12/13 13:06:18;;;;;;;1.60;1.10;;;9.50;98.20;;;;;;5061247;28;20541;-76
2020/12/13 13:08:47;;;;;;;1.60;1.10;;;9.50;98.20;;;;;;5053186;28;20478;-76
2020/12/13 13:11:19;;;;;;;1.60;1.20;;;9.50;98.20;;;;;;5067452;28;20556;-75
2020/12/13 13:13:46;;;;;;;1.60;1.10;;;9.50;98.20;;;;;;5059818;28;20488;-76
2020/12/13 13:16:15;;;;;;;1.60;1.10;;;9.60;98.20;;;;;;5057543;28;20972;-76
2020/12/13 13:18:41;;;;;;;1.60;1.20;;;9.60;98.20;;;;;;5054496;28;21034;-75